createdAt,value
2023-11-12T00:00:49.236Z,8.70
2023-11-12T00:01:49.303Z,8.50
2023-11-12T00:02:49.234Z,8.70
2023-11-12T00:03:49.294Z,8.60
2023-11-12T00:04:49.233Z,8.00
2023-11-12T00:05:49.184Z,8.40
2023-11-12T00:06:49.168Z,8.20
2023-11-12T00:07:49.182Z,8.40
2023-11-12T00:08:49.158Z,8.20
2023-11-12T00:09:49.198Z,8.00
2023-11-12T00:10:49.217Z,7.70
2023-11-12T00:11:49.148Z,7.70
2023-11-12T00:12:49.138Z,8.20
2023-11-12T00:13:49.155Z,8.40
2023-11-12T00:14:49.140Z,8.40
2023-11-12T00:15:49.110Z,7.80
2023-11-12T00:16:49.121Z,8.10
2023-11-12T00:17:49.134Z,8.00
2023-11-12T00:18:49.113Z,8.00
2023-11-12T00:19:49.104Z,7.90
2023-11-12T00:20:49.078Z,8.30
2023-11-12T00:21:49.057Z,8.30
2023-11-12T00:22:49.073Z,8.70
2023-11-12T00:23:49.103Z,8.20
2023-11-12T00:24:49.034Z,8.50
2023-11-12T00:25:49.051Z,9.00
2023-11-12T00:26:49.019Z,8.30
2023-11-12T00:27:49.012Z,8.00
2023-11-12T00:28:49.060Z,7.60
2023-11-12T00:29:49.006Z,7.00
2023-11-12T00:30:48.992Z,7.30
2023-11-12T00:31:49.076Z,7.40
2023-11-12T00:32:49.116Z,6.80
2023-11-12T00:33:48.998Z,7.20
2023-11-12T00:34:49.106Z,7.30
2023-11-12T00:35:48.981Z,6.80
2023-11-12T00:36:48.942Z,7.20
2023-11-12T00:37:48.986Z,7.20
2023-11-12T00:38:48.964Z,7.20
2023-11-12T00:39:48.931Z,7.20
2023-11-12T00:40:48.951Z,7.80
2023-11-12T00:41:48.916Z,7.40
2023-11-12T00:42:48.928Z,7.80
2023-11-12T00:43:50.182Z,7.50
2023-11-12T00:44:49.896Z,7.90
2023-11-12T00:45:48.936Z,7.70
2023-11-12T00:46:48.935Z,9.00
2023-11-12T00:47:48.956Z,9.70
2023-11-12T00:48:48.885Z,9.90
2023-11-12T00:49:48.855Z,9.50
2023-11-12T00:50:48.837Z,9.30
2023-11-12T00:51:48.835Z,9.70
2023-11-12T00:52:48.855Z,9.70
2023-11-12T00:53:48.822Z,9.10
2023-11-12T00:54:48.812Z,9.10
2023-11-12T00:55:48.841Z,8.70
2023-11-12T00:56:48.808Z,8.90
2023-11-12T00:57:48.809Z,8.60
2023-11-12T00:58:48.826Z,8.90
2023-11-12T00:59:48.850Z,8.30
2023-11-12T01:00:48.781Z,8.40
2023-11-12T01:01:48.948Z,8.80
2023-11-12T01:02:48.886Z,9.30
2023-11-12T01:03:48.832Z,9.90
2023-11-12T01:04:48.785Z,9.60
2023-11-12T01:05:48.720Z,9.50
2023-11-12T01:06:48.784Z,9.60
2023-11-12T01:07:48.784Z,9.50
2023-11-12T01:08:48.698Z,9.40
2023-11-12T01:09:48.694Z,9.40
2023-11-12T01:10:48.840Z,9.50
2023-11-12T01:11:48.711Z,9.40
2023-11-12T01:12:48.726Z,9.90
2023-11-12T01:13:48.683Z,11.00
2023-11-12T01:14:48.936Z,11.60
2023-11-12T01:15:48.726Z,11.70
2023-11-12T01:16:48.711Z,11.40
2023-11-12T01:17:48.684Z,11.20
2023-11-12T01:18:48.948Z,11.40
2023-11-12T01:19:48.621Z,11.10
2023-11-12T01:20:48.608Z,10.50
2023-11-12T01:21:48.696Z,10.50
2023-11-12T01:22:48.597Z,9.30
2023-11-12T01:23:48.584Z,8.20
2023-11-12T01:24:49.578Z,8.60
2023-11-12T01:25:48.619Z,8.40
2023-11-12T01:26:48.616Z,8.50
2023-11-12T01:27:48.562Z,8.80
2023-11-12T01:28:48.548Z,8.30
2023-11-12T01:29:48.539Z,8.80
2023-11-12T01:30:48.565Z,9.00
2023-11-12T01:31:48.600Z,8.60
2023-11-12T01:32:48.569Z,8.90
2023-11-12T01:33:48.505Z,9.40
2023-11-12T01:34:48.530Z,9.10
2023-11-12T01:35:48.522Z,9.10
2023-11-12T01:36:48.495Z,8.70
2023-11-12T01:37:48.472Z,8.10
2023-11-12T01:38:48.485Z,8.10
2023-11-12T01:39:48.481Z,8.50
2023-11-12T01:40:48.483Z,8.40
2023-11-12T01:41:49.328Z,8.40
2023-11-12T01:42:48.437Z,8.10
2023-11-12T01:43:48.446Z,8.90
2023-11-12T01:44:48.454Z,8.50
2023-11-12T01:45:48.420Z,8.60
2023-11-12T01:46:48.411Z,8.90
2023-11-12T01:47:48.499Z,8.90
2023-11-12T01:48:48.488Z,8.80
2023-11-12T01:49:48.422Z,8.80
2023-11-12T01:50:48.380Z,9.00
2023-11-12T01:51:48.368Z,9.90
2023-11-12T01:52:48.350Z,10.50
2023-11-12T01:53:49.351Z,10.50
2023-11-12T01:54:48.372Z,9.60
2023-11-12T01:55:48.344Z,9.20
2023-11-12T01:56:48.326Z,9.40
2023-11-12T01:57:48.320Z,9.70
2023-11-12T01:58:48.309Z,9.40
2023-11-12T01:59:48.330Z,9.20
2023-11-12T02:00:48.314Z,9.00
2023-11-12T02:01:48.371Z,9.00
2023-11-12T02:02:48.373Z,8.70
2023-11-12T02:03:48.418Z,8.70
2023-11-12T02:04:48.594Z,8.50
2023-11-12T02:05:48.265Z,8.10
2023-11-12T02:06:48.248Z,8.50
2023-11-12T02:07:48.245Z,8.60
2023-11-12T02:08:48.246Z,8.60
2023-11-12T02:09:48.248Z,9.00
2023-11-12T02:10:48.229Z,8.80
2023-11-12T02:11:48.205Z,9.30
2023-11-12T02:12:48.318Z,10.10
2023-11-12T02:13:48.221Z,10.80
2023-11-12T02:14:48.228Z,10.30
2023-11-12T02:15:48.255Z,11.10
2023-11-12T02:16:48.224Z,11.40
2023-11-12T02:17:48.182Z,10.90
2023-11-12T02:18:48.256Z,11.30
2023-11-12T02:19:48.160Z,11.10
2023-11-12T02:20:48.160Z,11.20
2023-11-12T02:21:48.149Z,11.70
2023-11-12T02:22:48.133Z,12.00
2023-11-12T02:23:48.168Z,12.20
2023-11-12T02:24:48.123Z,14.00
2023-11-12T02:25:48.117Z,15.40
2023-11-12T02:26:48.110Z,16.50
2023-11-12T02:27:48.094Z,16.50
2023-11-12T02:28:48.119Z,15.70
2023-11-12T02:29:48.077Z,15.00
2023-11-12T02:30:48.132Z,13.30
2023-11-12T02:31:48.062Z,13.40
2023-11-12T02:32:48.106Z,13.40
2023-11-12T02:33:48.102Z,12.80
2023-11-12T02:34:48.051Z,12.40
2023-11-12T02:35:48.039Z,11.70
2023-11-12T02:36:48.028Z,11.50
2023-11-12T02:37:48.042Z,11.00
2023-11-12T02:38:48.016Z,10.90
2023-11-12T02:39:48.007Z,11.00
2023-11-12T02:40:48.002Z,10.80
2023-11-12T02:41:47.987Z,10.10
2023-11-12T02:42:48.008Z,10.40
2023-11-12T02:43:47.968Z,10.00
2023-11-12T02:44:47.969Z,10.00
2023-11-12T02:45:47.985Z,10.00
2023-11-12T02:46:48.018Z,10.20
2023-11-12T02:47:48.038Z,10.30
2023-11-12T02:48:47.957Z,10.10
2023-11-12T02:49:47.948Z,10.50
2023-11-12T02:50:47.920Z,10.40
2023-11-12T02:51:47.936Z,11.10
2023-11-12T02:52:47.906Z,11.30
2023-11-12T02:53:47.904Z,11.50
2023-11-12T02:54:47.889Z,11.20
2023-11-12T02:55:47.885Z,11.60
2023-11-12T02:56:47.902Z,11.60
2023-11-12T02:57:47.869Z,11.30
2023-11-12T02:58:47.864Z,10.50
2023-11-12T02:59:47.864Z,10.90
2023-11-12T03:00:47.974Z,10.50
2023-11-12T03:01:47.872Z,10.70
2023-11-12T03:02:47.959Z,10.60
2023-11-12T03:03:47.880Z,10.80
2023-11-12T03:04:47.823Z,11.20
2023-11-12T03:05:47.836Z,10.70
2023-11-12T03:06:47.829Z,10.90
2023-11-12T03:07:47.797Z,11.00
2023-11-12T03:08:47.786Z,11.20
2023-11-12T03:09:47.781Z,11.60
2023-11-12T03:10:47.886Z,11.80
2023-11-12T03:11:47.765Z,11.90
2023-11-12T03:12:47.769Z,11.30
2023-11-12T03:13:47.749Z,11.90
2023-11-12T03:14:47.744Z,12.30
2023-11-12T03:15:47.816Z,12.10
2023-11-12T03:16:47.757Z,11.90
2023-11-12T03:17:47.748Z,11.60
2023-11-12T03:18:47.965Z,12.00
2023-11-12T03:19:47.752Z,11.60
2023-11-12T03:20:47.703Z,11.70
2023-11-12T03:21:47.695Z,11.60
2023-11-12T03:22:47.707Z,11.00
2023-11-12T03:23:47.679Z,11.50
2023-11-12T03:24:47.697Z,11.60
2023-11-12T03:25:47.664Z,11.30
2023-11-12T03:26:47.661Z,11.60
2023-11-12T03:27:47.678Z,11.70
2023-11-12T03:28:47.653Z,11.30
2023-11-12T03:29:48.664Z,11.80
2023-11-12T03:30:47.702Z,12.00
2023-11-12T03:31:47.636Z,12.00
2023-11-12T03:32:47.733Z,12.30
2023-11-12T03:33:47.678Z,11.60
2023-11-12T03:34:47.621Z,12.30
2023-11-12T03:35:47.597Z,12.40
2023-11-12T03:36:47.592Z,11.90
2023-11-12T03:37:47.588Z,12.10
2023-11-12T03:38:47.587Z,11.80
2023-11-12T03:39:47.622Z,12.30
2023-11-12T03:40:47.558Z,11.80
2023-11-12T03:41:47.561Z,12.20
2023-11-12T03:42:47.536Z,12.80
2023-11-12T03:43:48.572Z,12.30
2023-11-12T03:44:47.528Z,12.00
2023-11-12T03:45:47.543Z,12.00
2023-11-12T03:46:47.533Z,11.90
2023-11-12T03:47:47.554Z,12.20
2023-11-12T03:48:47.585Z,11.80
2023-11-12T03:49:47.490Z,11.60
2023-11-12T03:50:47.480Z,12.00
2023-11-12T03:51:47.470Z,11.80
2023-11-12T03:52:47.461Z,11.30
2023-11-12T03:53:47.476Z,11.50
2023-11-12T03:54:47.494Z,11.40
2023-11-12T03:55:47.435Z,11.90
2023-11-12T03:56:47.423Z,11.50
2023-11-12T03:57:47.492Z,11.70
2023-11-12T03:58:47.447Z,12.10
2023-11-12T03:59:47.411Z,11.40
2023-11-12T04:00:47.427Z,11.00
2023-11-12T04:01:47.394Z,11.20
2023-11-12T04:02:48.913Z,11.50
2023-11-12T04:03:47.558Z,11.70
2023-11-12T04:04:47.482Z,11.70
2023-11-12T04:05:47.363Z,11.40
2023-11-12T04:06:47.352Z,11.30
2023-11-12T04:07:47.391Z,11.50
2023-11-12T04:08:47.359Z,11.40
2023-11-12T04:09:47.333Z,11.80
2023-11-12T04:10:47.316Z,11.90
2023-11-12T04:11:47.327Z,11.80
2023-11-12T04:12:47.329Z,11.60
2023-11-12T04:13:47.301Z,12.00
2023-11-12T04:14:47.293Z,11.40
2023-11-12T04:15:47.353Z,11.90
2023-11-12T04:16:47.297Z,11.90
2023-11-12T04:17:47.338Z,11.80
2023-11-12T04:18:47.272Z,12.00
2023-11-12T04:19:47.248Z,11.90
2023-11-12T04:20:47.253Z,11.80
2023-11-12T04:21:47.326Z,12.10
2023-11-12T04:22:47.229Z,12.10
2023-11-12T04:23:47.218Z,11.40
2023-11-12T04:24:47.289Z,11.70
2023-11-12T04:25:47.207Z,11.70
2023-11-12T04:26:47.271Z,11.70
2023-11-12T04:27:47.186Z,11.60
2023-11-12T04:28:47.188Z,11.50
2023-11-12T04:29:47.171Z,11.80
2023-11-12T04:30:47.167Z,11.70
2023-11-12T04:31:47.196Z,11.50
2023-11-12T04:32:47.990Z,11.40
2023-11-12T04:33:47.138Z,11.30
2023-11-12T04:34:47.133Z,11.20
2023-11-12T04:35:47.153Z,11.60
2023-11-12T04:36:47.142Z,11.70
2023-11-12T04:37:47.120Z,12.20
2023-11-12T04:38:47.112Z,11.70
2023-11-12T04:39:47.128Z,11.70
2023-11-12T04:40:47.133Z,10.90
2023-11-12T04:41:47.086Z,11.60
2023-11-12T04:42:47.117Z,11.10
2023-11-12T04:43:47.065Z,10.90
2023-11-12T04:44:47.053Z,11.40
2023-11-12T04:45:47.201Z,11.40
2023-11-12T04:46:47.045Z,11.20
2023-11-12T04:47:47.066Z,11.90
2023-11-12T04:48:47.042Z,11.70
2023-11-12T04:49:47.016Z,11.70
2023-11-12T04:50:47.423Z,11.50
2023-11-12T04:51:47.059Z,12.00
2023-11-12T04:52:46.997Z,11.80
2023-11-12T04:53:46.990Z,11.80
2023-11-12T04:54:47.029Z,11.80
2023-11-12T04:55:47.004Z,12.20
2023-11-12T04:56:46.968Z,12.70
2023-11-12T04:57:46.982Z,12.40
2023-11-12T04:58:46.960Z,12.70
2023-11-12T04:59:46.970Z,12.30
2023-11-12T05:00:46.965Z,12.40
2023-11-12T05:01:46.973Z,12.40
2023-11-12T05:02:46.951Z,11.80
2023-11-12T05:03:47.091Z,11.70
2023-11-12T05:04:46.930Z,12.00
2023-11-12T05:05:46.909Z,11.20
2023-11-12T05:06:46.904Z,11.50
2023-11-12T05:07:46.885Z,11.50
2023-11-12T05:08:46.881Z,11.20
2023-11-12T05:09:46.972Z,11.30
2023-11-12T05:10:46.868Z,12.00
2023-11-12T05:11:46.855Z,11.30
2023-11-12T05:12:46.966Z,11.80
2023-11-12T05:13:46.865Z,12.10
2023-11-12T05:14:46.857Z,12.00
2023-11-12T05:15:46.860Z,12.20
2023-11-12T05:16:46.813Z,11.90
2023-11-12T05:17:46.837Z,12.30
2023-11-12T05:18:46.880Z,12.40
2023-11-12T05:19:46.796Z,13.20
2023-11-12T05:20:46.785Z,13.50
2023-11-12T05:22:20.896Z,13.40
2023-11-12T05:22:46.772Z,13.20
2023-11-12T05:23:46.794Z,12.80
2023-11-12T05:24:46.796Z,13.00
2023-11-12T05:25:46.777Z,12.90
2023-11-12T05:26:46.749Z,12.40
2023-11-12T05:27:46.788Z,12.20
2023-11-12T05:28:46.764Z,12.50
2023-11-12T05:29:46.745Z,12.40
2023-11-12T05:30:46.751Z,12.90
2023-11-12T05:31:46.720Z,12.90
2023-11-12T05:32:46.787Z,13.50
2023-11-12T05:33:46.769Z,13.90
2023-11-12T05:34:46.689Z,14.20
2023-11-12T05:35:46.752Z,14.60
2023-11-12T05:36:46.706Z,17.20
2023-11-12T05:37:46.697Z,18.90
2023-11-12T05:38:46.653Z,18.40
2023-11-12T05:39:46.721Z,18.20
2023-11-12T05:40:46.774Z,17.80
2023-11-12T05:41:46.690Z,18.70
2023-11-12T05:42:46.696Z,15.10
2023-11-12T05:43:46.615Z,14.40
2023-11-12T05:44:46.615Z,13.30
2023-11-12T05:45:46.627Z,13.30
2023-11-12T05:46:46.623Z,13.60
2023-11-12T05:47:46.660Z,13.40
2023-11-12T05:48:46.617Z,12.30
2023-11-12T05:49:46.571Z,12.40
2023-11-12T05:50:46.592Z,12.40
2023-11-12T05:51:46.618Z,12.70
2023-11-12T05:52:46.585Z,12.60
2023-11-12T05:53:46.559Z,13.20
2023-11-12T05:54:46.569Z,13.30
2023-11-12T05:55:46.522Z,13.40
2023-11-12T05:56:46.549Z,13.50
2023-11-12T05:57:46.576Z,13.90
2023-11-12T05:58:46.525Z,13.30
2023-11-12T05:59:46.502Z,13.20
2023-11-12T06:00:46.562Z,14.30
2023-11-12T06:01:46.625Z,14.40
2023-11-12T06:02:46.537Z,13.70
2023-11-12T06:03:47.118Z,13.20
2023-11-12T06:04:46.461Z,13.30
2023-11-12T06:05:46.453Z,14.30
2023-11-12T06:06:46.520Z,15.20
2023-11-12T06:07:46.459Z,15.00
2023-11-12T06:08:46.435Z,15.00
2023-11-12T06:09:46.473Z,14.70
2023-11-12T06:10:46.447Z,13.80
2023-11-12T06:11:46.422Z,13.70
2023-11-12T06:12:46.474Z,13.70
2023-11-12T06:13:46.383Z,13.50
2023-11-12T06:14:49.041Z,13.60
2023-11-12T06:15:47.498Z,14.00
2023-11-12T06:16:46.407Z,13.20
2023-11-12T06:17:46.409Z,13.50
2023-11-12T06:18:46.365Z,13.50
2023-11-12T06:19:46.396Z,13.00
2023-11-12T06:20:46.387Z,12.70
2023-11-12T06:21:46.394Z,13.10
2023-11-12T06:22:46.317Z,13.40
2023-11-12T06:23:46.364Z,13.90
2023-11-12T06:24:46.365Z,14.60
2023-11-12T06:25:46.330Z,16.00
2023-11-12T06:26:46.292Z,16.20
2023-11-12T06:27:46.313Z,15.70
2023-11-12T06:28:46.272Z,16.10
2023-11-12T06:29:46.287Z,15.90
2023-11-12T06:30:46.285Z,16.00
2023-11-12T06:31:46.244Z,16.00
2023-11-12T06:32:46.277Z,15.50
2023-11-12T06:33:46.286Z,16.00
2023-11-12T06:34:46.329Z,15.80
2023-11-12T06:35:46.223Z,14.80
2023-11-12T06:36:46.865Z,14.80
2023-11-12T06:37:46.208Z,14.70
2023-11-12T06:38:46.305Z,14.10
2023-11-12T06:39:46.238Z,14.20
2023-11-12T06:40:46.186Z,14.30
2023-11-12T06:41:46.216Z,14.40
2023-11-12T06:42:46.193Z,14.40
2023-11-12T06:43:46.188Z,14.30
2023-11-12T06:44:46.176Z,14.40
2023-11-12T06:45:46.171Z,14.40
2023-11-12T06:46:46.193Z,15.00
2023-11-12T06:47:46.164Z,14.10
2023-11-12T06:48:46.184Z,15.30
2023-11-12T06:49:46.112Z,15.10
2023-11-12T06:50:46.098Z,15.20
2023-11-12T06:51:46.156Z,15.40
2023-11-12T06:52:46.085Z,15.10
2023-11-12T06:53:46.109Z,14.80
2023-11-12T06:54:46.145Z,14.90
2023-11-12T06:55:46.070Z,14.70
2023-11-12T06:56:46.071Z,15.40
2023-11-12T06:57:46.071Z,14.60
2023-11-12T06:58:46.064Z,15.20
2023-11-12T06:59:46.035Z,15.00
2023-11-12T07:00:46.060Z,14.80
2023-11-12T07:01:46.082Z,15.20
2023-11-12T07:02:46.052Z,14.80
2023-11-12T07:03:46.124Z,14.70
2023-11-12T07:04:46.013Z,15.60
2023-11-12T07:05:45.994Z,15.00
2023-11-12T07:07:01.026Z,15.10
2023-11-12T07:07:47.984Z,15.60
2023-11-12T07:08:45.996Z,15.60
2023-11-12T07:09:46.044Z,15.30
2023-11-12T07:10:45.955Z,14.90
2023-11-12T07:11:45.946Z,15.40
2023-11-12T07:12:46.032Z,15.10
2023-11-12T07:13:45.999Z,16.10
2023-11-12T07:14:45.919Z,17.00
2023-11-12T07:15:45.974Z,17.90
2023-11-12T07:16:45.992Z,17.20
2023-11-12T07:17:45.968Z,15.80
2023-11-12T07:18:53.444Z,16.00
2023-11-12T07:19:46.880Z,18.70
2023-11-12T07:20:45.893Z,16.70
2023-11-12T07:21:45.926Z,16.40
2023-11-12T07:22:45.906Z,16.70
2023-11-12T07:23:45.852Z,16.50
2023-11-12T07:24:45.898Z,16.20
2023-11-12T07:25:45.833Z,16.00
2023-11-12T07:26:45.851Z,16.10
2023-11-12T07:27:45.884Z,16.10
2023-11-12T07:28:45.827Z,16.30
2023-11-12T07:29:45.812Z,15.90
2023-11-12T07:30:45.816Z,16.20
2023-11-12T07:31:45.852Z,16.10
2023-11-12T07:32:45.809Z,15.90
2023-11-12T07:33:45.794Z,16.00
2023-11-12T07:34:45.763Z,16.10
2023-11-12T07:35:45.758Z,16.20
2023-11-12T07:36:45.843Z,16.40
2023-11-12T07:37:45.740Z,16.30
2023-11-12T07:38:45.736Z,16.40
2023-11-12T07:39:45.785Z,16.20
2023-11-12T07:40:45.919Z,16.50
2023-11-12T07:41:45.739Z,17.40
2023-11-12T07:42:45.724Z,16.80
2023-11-12T07:43:45.719Z,16.90
2023-11-12T07:44:47.137Z,16.50
2023-11-12T07:45:45.865Z,16.80
2023-11-12T07:46:45.717Z,16.50
2023-11-12T07:47:45.666Z,17.60
2023-11-12T07:48:45.705Z,18.00
2023-11-12T07:49:45.663Z,17.70
2023-11-12T07:50:45.671Z,17.20
2023-11-12T07:51:45.733Z,18.10
2023-11-12T07:52:45.629Z,18.00
2023-11-12T07:53:45.631Z,16.80
2023-11-12T07:54:45.643Z,16.50
2023-11-12T07:55:45.628Z,15.80
2023-11-12T07:56:45.612Z,16.30
2023-11-12T07:57:45.618Z,15.60
2023-11-12T07:58:45.641Z,15.80
2023-11-12T07:59:45.581Z,15.80
2023-11-12T08:00:45.642Z,15.40
2023-11-12T08:01:45.611Z,15.80
2023-11-12T08:02:45.648Z,16.10
2023-11-12T08:03:45.610Z,15.80
2023-11-12T08:04:45.574Z,15.50
2023-11-12T08:05:45.577Z,15.00
2023-11-12T08:06:45.528Z,15.20
2023-11-12T08:07:45.519Z,15.30
2023-11-12T08:08:45.492Z,14.60
2023-11-12T08:09:46.582Z,14.80
2023-11-12T08:10:45.518Z,15.50
2023-11-12T08:11:45.516Z,15.10
2023-11-12T08:12:45.481Z,15.60
2023-11-12T08:13:45.474Z,15.80
2023-11-12T08:14:45.491Z,15.90
2023-11-12T08:15:45.490Z,16.60
2023-11-12T08:16:45.462Z,16.80
2023-11-12T08:17:45.441Z,17.40
2023-11-12T08:18:45.476Z,17.50
2023-11-12T08:19:45.467Z,18.30
2023-11-12T08:20:45.418Z,19.00
2023-11-12T08:21:45.446Z,18.60
2023-11-12T08:22:45.427Z,17.20
2023-11-12T08:23:45.416Z,17.80
2023-11-12T08:24:45.425Z,17.30
2023-11-12T08:25:45.397Z,16.30
2023-11-12T08:26:45.371Z,15.50
2023-11-12T08:27:45.397Z,16.50
2023-11-12T08:28:45.381Z,17.30
2023-11-12T08:29:45.345Z,17.30
2023-11-12T08:30:45.390Z,15.90
2023-11-12T08:31:45.342Z,15.70
2023-11-12T08:32:45.364Z,15.00
2023-11-12T08:33:45.429Z,14.90
2023-11-12T08:34:45.312Z,15.80
2023-11-12T08:35:45.302Z,15.50
2023-11-12T08:36:45.374Z,15.60
2023-11-12T08:37:45.317Z,16.00
2023-11-12T08:38:46.349Z,15.60
2023-11-12T08:39:45.316Z,16.00
2023-11-12T08:40:45.335Z,16.10
2023-11-12T08:41:45.257Z,16.50
2023-11-12T08:42:45.330Z,16.10
2023-11-12T08:43:45.316Z,14.90
2023-11-12T08:44:45.235Z,15.50
2023-11-12T08:45:45.259Z,15.00
2023-11-12T08:46:45.257Z,14.10
2023-11-12T08:47:45.294Z,13.80
2023-11-12T08:48:45.227Z,13.50
2023-11-12T08:49:45.206Z,13.90
2023-11-12T08:50:45.212Z,13.90
2023-11-12T08:51:45.192Z,13.60
2023-11-12T08:52:45.210Z,13.20
2023-11-12T08:53:45.180Z,13.60
2023-11-12T08:54:45.218Z,13.60
2023-11-12T08:55:45.152Z,13.10
2023-11-12T08:56:45.165Z,13.80
2023-11-12T08:57:45.195Z,13.50
2023-11-12T08:58:45.120Z,13.80
2023-11-12T08:59:45.121Z,13.90
2023-11-12T09:00:45.159Z,14.20
2023-11-12T09:01:45.244Z,13.70
2023-11-12T09:02:46.193Z,14.40
2023-11-12T09:03:45.140Z,14.90
2023-11-12T09:04:45.073Z,14.40
2023-11-12T09:05:45.071Z,14.00
2023-11-12T09:06:45.164Z,14.20
2023-11-12T09:07:45.079Z,13.90
2023-11-12T09:08:45.070Z,14.80
2023-11-12T09:09:45.103Z,14.30
2023-11-12T09:10:45.044Z,13.90
2023-11-12T09:11:45.054Z,14.50
2023-11-12T09:12:45.064Z,14.60
2023-11-12T09:13:45.014Z,13.50
2023-11-12T09:14:45.001Z,13.00
2023-11-12T09:15:45.062Z,12.80
2023-11-12T09:16:45.194Z,12.60
2023-11-12T09:17:45.050Z,12.70
2023-11-12T09:18:45.025Z,12.50
2023-11-12T09:19:44.988Z,12.90
2023-11-12T09:20:44.987Z,13.10
2023-11-12T09:21:45.082Z,12.50
2023-11-12T09:22:44.938Z,12.40
2023-11-12T09:23:44.936Z,12.00
2023-11-12T09:24:55.383Z,11.60
2023-11-12T09:25:46.916Z,11.60
2023-11-12T09:26:44.946Z,12.00
2023-11-12T09:27:44.931Z,11.20
2023-11-12T09:28:44.912Z,11.80
2023-11-12T09:29:44.886Z,22.60
2023-11-12T09:30:54.368Z,12.80
2023-11-12T09:31:45.905Z,15.50
2023-11-12T09:32:44.937Z,19.90
2023-11-12T09:33:44.960Z,11.90
2023-11-12T09:34:45.342Z,13.60
2023-11-12T09:35:44.864Z,12.50
2023-11-12T09:36:44.886Z,12.40
2023-11-12T09:37:44.836Z,11.60
2023-11-12T09:38:44.823Z,13.50
2023-11-12T09:39:44.880Z,12.70
2023-11-12T09:40:44.848Z,11.60
2023-11-12T09:41:44.873Z,12.20
2023-11-12T09:42:44.833Z,12.70
2023-11-12T09:43:44.796Z,13.00
2023-11-12T09:44:44.773Z,12.30
2023-11-12T09:45:44.869Z,12.60
2023-11-12T09:46:44.762Z,13.40
2023-11-12T09:47:44.833Z,15.40
2023-11-12T09:48:44.763Z,37.70
2023-11-12T09:49:44.754Z,13.70
2023-11-12T09:50:44.750Z,15.10
2023-11-12T09:51:44.851Z,15.40
2023-11-12T09:52:44.715Z,13.90
2023-11-12T09:53:44.714Z,14.40
2023-11-12T09:54:44.720Z,12.10
2023-11-12T09:55:44.723Z,11.90
2023-11-12T09:56:45.098Z,11.70
2023-11-12T09:57:44.725Z,12.00
2023-11-12T09:58:44.667Z,11.10
2023-11-12T09:59:44.696Z,11.50
2023-11-12T10:00:44.821Z,11.40
2023-11-12T10:01:44.670Z,12.50
2023-11-12T10:02:44.720Z,12.20
2023-11-12T10:03:44.828Z,12.20
2023-11-12T10:04:44.796Z,25.00
2023-11-12T10:05:44.632Z,11.10
2023-11-12T10:06:44.677Z,11.60
2023-11-12T10:07:44.721Z,14.40
2023-11-12T10:08:44.608Z,20.00
2023-11-12T10:09:44.724Z,10.40
2023-11-12T10:10:44.626Z,11.00
2023-11-12T10:11:44.640Z,11.00
2023-11-12T10:12:44.639Z,10.60
2023-11-12T10:13:44.630Z,12.00
2023-11-12T10:14:44.620Z,14.90
2023-11-12T10:15:45.610Z,19.70
2023-11-12T10:16:44.645Z,11.50
2023-11-12T10:17:44.679Z,11.60
2023-11-12T10:18:44.597Z,13.70
2023-11-12T10:19:44.583Z,12.40
2023-11-12T10:20:44.508Z,9.50
2023-11-12T10:21:44.551Z,9.40
2023-11-12T10:22:44.606Z,9.00
2023-11-12T10:23:44.520Z,9.20
2023-11-12T10:24:44.574Z,11.00
2023-11-12T10:25:44.481Z,9.40
2023-11-12T10:26:44.451Z,9.40
2023-11-12T10:27:44.499Z,8.80
2023-11-12T10:28:44.510Z,9.00
2023-11-12T10:29:44.467Z,9.10
2023-11-12T10:30:44.459Z,9.20
2023-11-12T10:31:44.463Z,9.20
2023-11-12T10:32:44.507Z,9.80
2023-11-12T10:33:44.500Z,9.40
2023-11-12T10:34:44.428Z,9.30
2023-11-12T10:35:44.406Z,10.00
2023-11-12T10:36:44.428Z,9.60
2023-11-12T10:37:44.372Z,9.30
2023-11-12T10:38:44.403Z,10.30
2023-11-12T10:39:44.388Z,9.50
2023-11-12T10:40:44.365Z,9.60
2023-11-12T10:41:44.345Z,8.70
2023-11-12T10:42:44.405Z,9.40
2023-11-12T10:43:44.395Z,8.80
2023-11-12T10:44:44.320Z,9.00
2023-11-12T10:45:44.371Z,8.50
2023-11-12T10:46:44.374Z,8.00
2023-11-12T10:47:44.352Z,8.30
2023-11-12T10:48:44.436Z,8.30
2023-11-12T10:49:44.272Z,9.40
2023-11-12T10:50:44.271Z,8.50
2023-11-12T10:51:44.377Z,8.00
2023-11-12T10:52:44.291Z,8.20
2023-11-12T10:53:44.236Z,8.20
2023-11-12T10:54:44.473Z,8.40
2023-11-12T10:55:44.227Z,8.20
2023-11-12T10:56:44.224Z,9.00
2023-11-12T10:57:44.337Z,9.50
2023-11-12T10:58:44.240Z,9.10
2023-11-12T10:59:44.188Z,8.50
2023-11-12T11:00:44.294Z,9.10
2023-11-12T11:01:44.246Z,8.80
2023-11-12T11:02:44.232Z,8.00
2023-11-12T11:03:44.215Z,7.90
2023-11-12T11:04:44.267Z,7.20
2023-11-12T11:05:44.148Z,7.50
2023-11-12T11:06:44.187Z,6.50
2023-11-12T11:07:44.182Z,7.00
2023-11-12T11:08:44.131Z,6.00
2023-11-12T11:09:44.148Z,6.30
2023-11-12T11:10:44.117Z,7.00
2023-11-12T11:11:44.127Z,7.10
2023-11-12T11:12:44.149Z,6.30
2023-11-12T11:13:44.143Z,5.60
2023-11-12T11:14:44.078Z,5.60
2023-11-12T11:15:44.171Z,5.50
2023-11-12T11:16:44.127Z,5.10
2023-11-12T11:17:44.051Z,5.30
2023-11-12T11:18:44.094Z,5.50
2023-11-12T11:19:44.036Z,6.10
2023-11-12T11:20:44.027Z,5.60
2023-11-12T11:21:44.054Z,5.40
2023-11-12T11:23:16.494Z,6.50
2023-11-12T11:23:44.015Z,5.90
2023-11-12T11:24:44.025Z,5.10
2023-11-12T11:25:44.011Z,4.90
2023-11-12T11:26:44.012Z,5.30
2023-11-12T11:27:43.995Z,4.80
2023-11-12T11:28:43.961Z,5.00
2023-11-12T11:29:44.672Z,5.10
2023-11-12T11:30:43.997Z,5.10
2023-11-12T11:31:43.940Z,5.00
2023-11-12T11:32:43.952Z,5.40
2023-11-12T11:33:44.142Z,5.30
2023-11-12T11:34:44.915Z,5.10
2023-11-12T11:35:43.928Z,5.10
2023-11-12T11:36:44.964Z,5.10
2023-11-12T11:37:43.908Z,4.60
2023-11-12T11:38:43.884Z,4.80
2023-11-12T11:39:43.948Z,5.20
2023-11-12T11:40:43.899Z,6.40
2023-11-12T11:41:43.876Z,5.30
2023-11-12T11:42:43.910Z,5.10
2023-11-12T11:43:43.846Z,5.70
2023-11-12T11:44:43.889Z,6.30
2023-11-12T11:45:43.902Z,40.10
2023-11-12T11:46:43.853Z,54.60
2023-11-12T11:47:43.829Z,43.40
2023-11-12T11:48:43.840Z,51.70
2023-11-12T11:49:46.579Z,27.40
2023-11-12T11:50:47.015Z,41.40
2023-11-12T11:51:43.867Z,10.80
2023-11-12T11:52:43.782Z,33.70
2023-11-12T11:53:43.785Z,19.00
2023-11-12T11:54:43.822Z,7.20
2023-11-12T11:55:43.759Z,6.30
2023-11-12T11:56:43.756Z,6.20
2023-11-12T11:57:44.166Z,6.00
2023-11-12T11:58:43.740Z,5.90
2023-11-12T11:59:43.767Z,5.90
2023-11-12T12:00:43.733Z,5.80
2023-11-12T12:01:43.751Z,5.80
2023-11-12T12:02:43.813Z,5.70
2023-11-12T12:03:43.748Z,5.80
2023-11-12T12:04:43.753Z,6.30
2023-11-12T12:05:43.678Z,6.60
2023-11-12T12:06:43.698Z,6.30
2023-11-12T12:07:43.654Z,6.40
2023-11-12T12:08:43.653Z,6.50
2023-11-12T12:09:43.691Z,6.80
2023-11-12T12:10:43.636Z,6.90
2023-11-12T12:11:43.629Z,7.60
2023-11-12T12:12:43.664Z,8.00
2023-11-12T12:13:43.620Z,7.90
2023-11-12T12:14:43.639Z,8.30
2023-11-12T12:15:43.626Z,8.90
2023-11-12T12:16:46.304Z,8.20
2023-11-12T12:17:44.619Z,8.10
2023-11-12T12:18:43.651Z,8.00
2023-11-12T12:19:43.596Z,7.60
2023-11-12T12:20:43.557Z,7.90
2023-11-12T12:21:43.570Z,7.30
2023-11-12T12:22:43.542Z,7.40
2023-11-12T12:23:43.539Z,7.40
2023-11-12T12:24:43.559Z,7.50
2023-11-12T12:25:43.514Z,7.60
2023-11-12T12:26:43.512Z,7.50
2023-11-12T12:27:43.553Z,8.00
2023-11-12T12:28:43.498Z,7.90
2023-11-12T12:29:43.513Z,7.90
2023-11-12T12:30:43.523Z,7.20
2023-11-12T12:31:43.502Z,7.30
2023-11-12T12:32:43.517Z,7.30
2023-11-12T12:33:43.506Z,7.10
2023-11-12T12:34:43.468Z,7.30
2023-11-12T12:35:43.441Z,7.20
2023-11-12T12:36:43.465Z,7.00
2023-11-12T12:37:43.448Z,7.40
2023-11-12T12:38:43.411Z,7.10
2023-11-12T12:39:43.515Z,7.40
2023-11-12T12:40:43.457Z,7.10
2023-11-12T12:41:43.391Z,7.10
2023-11-12T12:42:43.436Z,6.40
2023-11-12T12:43:43.396Z,6.50
2023-11-12T12:44:43.393Z,7.00
2023-11-12T12:45:43.389Z,7.10
2023-11-12T12:46:43.435Z,7.20
2023-11-12T12:47:43.525Z,6.80
2023-11-12T12:48:43.386Z,6.50
2023-11-12T12:49:43.376Z,5.90
2023-11-12T12:50:43.325Z,6.20
2023-11-12T12:51:43.353Z,6.20
2023-11-12T12:52:43.328Z,5.90
2023-11-12T12:53:43.309Z,5.90
2023-11-12T12:54:43.404Z,6.00
2023-11-12T12:55:43.304Z,5.80
2023-11-12T12:56:43.273Z,6.40
2023-11-12T12:57:43.292Z,6.20
2023-11-12T12:58:43.286Z,6.20
2023-11-12T12:59:43.314Z,5.80
2023-11-12T13:00:43.262Z,5.60
2023-11-12T13:01:43.306Z,5.70